sensor_id;sensor_type;location;lat;lon;timestamp;P1;durP1;ratioP1;P2;durP2;ratioP2
15567;SDS011;7885;42.596;23.044;2022-07-29T00:01:13;15.20;;;13.83;;
15567;SDS011;7885;42.596;23.044;2022-07-29T00:03:40;15.10;;;13.27;;
15567;SDS011;7885;42.596;23.044;2022-07-29T00:06:07;14.73;;;13.27;;
15567;SDS011;7885;42.596;23.044;2022-07-29T00:08:34;14.80;;;13.50;;
15567;SDS011;7885;42.596;23.044;2022-07-29T00:11:01;15.27;;;13.77;;
15567;SDS011;7885;42.596;23.044;2022-07-29T00:13:28;15.00;;;12.93;;
15567;SDS011;7885;42.596;23.044;2022-07-29T00:15:54;14.70;;;13.20;;
15567;SDS011;7885;42.596;23.044;2022-07-29T00:18:23;15.53;;;13.93;;
15567;SDS011;7885;42.596;23.044;2022-07-29T00:20:49;14.70;;;12.60;;
15567;SDS011;7885;42.596;23.044;2022-07-29T00:23:16;14.00;;;12.17;;
15567;SDS011;7885;42.596;23.044;2022-07-29T00:25:43;12.63;;;11.57;;
15567;SDS011;7885;42.596;23.044;2022-07-29T00:28:10;14.57;;;12.00;;
15567;SDS011;7885;42.596;23.044;2022-07-29T00:30:36;12.63;;;11.33;;
15567;SDS011;7885;42.596;23.044;2022-07-29T00:33:03;13.33;;;12.10;;
15567;SDS011;7885;42.596;23.044;2022-07-29T00:35:31;14.00;;;12.63;;
15567;SDS011;7885;42.596;23.044;2022-07-29T00:38:09;16.93;;;13.77;;
15567;SDS011;7885;42.596;23.044;2022-07-29T00:40:36;13.10;;;11.90;;
15567;SDS011;7885;42.596;23.044;2022-07-29T00:43:03;13.50;;;12.10;;
15567;SDS011;7885;42.596;23.044;2022-07-29T00:45:30;13.90;;;11.90;;
15567;SDS011;7885;42.596;23.044;2022-07-29T00:47:57;16.30;;;12.40;;
15567;SDS011;7885;42.596;23.044;2022-07-29T00:50:24;13.90;;;12.13;;
15567;SDS011;7885;42.596;23.044;2022-07-29T00:52:52;14.00;;;12.67;;
15567;SDS011;7885;42.596;23.044;2022-07-29T00:55:19;14.10;;;12.90;;
15567;SDS011;7885;42.596;23.044;2022-07-29T00:57:46;14.80;;;13.37;;
15567;SDS011;7885;42.596;23.044;2022-07-29T01:00:14;15.87;;;12.93;;
15567;SDS011;7885;42.596;23.044;2022-07-29T01:02:43;14.60;;;13.10;;
15567;SDS011;7885;42.596;23.044;2022-07-29T01:05:10;15.30;;;13.17;;
15567;SDS011;7885;42.596;23.044;2022-07-29T01:07:37;14.00;;;12.60;;
15567;SDS011;7885;42.596;23.044;2022-07-29T01:10:07;14.73;;;13.23;;
15567;SDS011;7885;42.596;23.044;2022-07-29T01:12:37;15.17;;;13.57;;
15567;SDS011;7885;42.596;23.044;2022-07-29T01:15:05;16.17;;;13.67;;
15567;SDS011;7885;42.596;23.044;2022-07-29T01:17:34;16.07;;;13.50;;
15567;SDS011;7885;42.596;23.044;2022-07-29T01:20:06;17.47;;;14.03;;
15567;SDS011;7885;42.596;23.044;2022-07-29T01:22:44;15.13;;;13.40;;
15567;SDS011;7885;42.596;23.044;2022-07-29T01:31:28;14.43;;;12.97;;
15567;SDS011;7885;42.596;23.044;2022-07-29T01:34:01;15.03;;;13.53;;
15567;SDS011;7885;42.596;23.044;2022-07-29T01:36:31;14.87;;;13.40;;
15567;SDS011;7885;42.596;23.044;2022-07-29T01:39:09;15.67;;;14.00;;
15567;SDS011;7885;42.596;23.044;2022-07-29T01:41:38;15.00;;;13.50;;
15567;SDS011;7885;42.596;23.044;2022-07-29T01:44:15;18.47;;;13.73;;
15567;SDS011;7885;42.596;23.044;2022-07-29T01:46:47;16.27;;;13.67;;
15567;SDS011;7885;42.596;23.044;2022-07-29T01:49:20;16.37;;;13.83;;
15567;SDS011;7885;42.596;23.044;2022-07-29T01:51:51;15.63;;;14.13;;
15567;SDS011;7885;42.596;23.044;2022-07-29T01:54:22;15.87;;;13.90;;
15567;SDS011;7885;42.596;23.044;2022-07-29T01:56:53;15.63;;;13.87;;
15567;SDS011;7885;42.596;23.044;2022-07-29T01:59:24;15.57;;;13.60;;
15567;SDS011;7885;42.596;23.044;2022-07-29T02:01:53;15.10;;;13.50;;
15567;SDS011;7885;42.596;23.044;2022-07-29T02:04:21;18.80;;;13.37;;
15567;SDS011;7885;42.596;23.044;2022-07-29T02:06:49;13.80;;;12.37;;
15567;SDS011;7885;42.596;23.044;2022-07-29T02:09:19;14.57;;;12.83;;
15567;SDS011;7885;42.596;23.044;2022-07-29T02:11:48;20.20;;;14.53;;
15567;SDS011;7885;42.596;23.044;2022-07-29T02:14:17;17.10;;;14.00;;
15567;SDS011;7885;42.596;23.044;2022-07-29T02:16:48;19.80;;;15.50;;
15567;SDS011;7885;42.596;23.044;2022-07-29T02:19:19;23.37;;;13.97;;
15567;SDS011;7885;42.596;23.044;2022-07-29T02:21:49;16.07;;;13.70;;
15567;SDS011;7885;42.596;23.044;2022-07-29T02:24:19;16.63;;;14.30;;
15567;SDS011;7885;42.596;23.044;2022-07-29T02:26:48;17.27;;;13.23;;
15567;SDS011;7885;42.596;23.044;2022-07-29T02:29:16;18.20;;;13.53;;
15567;SDS011;7885;42.596;23.044;2022-07-29T02:31:48;17.97;;;14.33;;
15567;SDS011;7885;42.596;23.044;2022-07-29T02:34:17;18.00;;;15.77;;
15567;SDS011;7885;42.596;23.044;2022-07-29T02:36:46;19.20;;;15.63;;
15567;SDS011;7885;42.596;23.044;2022-07-29T02:39:14;23.10;;;15.77;;
15567;SDS011;7885;42.596;23.044;2022-07-29T02:41:43;16.30;;;12.90;;
15567;SDS011;7885;42.596;23.044;2022-07-29T02:44:14;15.13;;;12.23;;
15567;SDS011;7885;42.596;23.044;2022-07-29T02:46:43;13.73;;;12.40;;
15567;SDS011;7885;42.596;23.044;2022-07-29T02:49:16;13.10;;;11.90;;
15567;SDS011;7885;42.596;23.044;2022-07-29T02:51:53;15.77;;;13.17;;
15567;SDS011;7885;42.596;23.044;2022-07-29T02:54:25;14.30;;;12.47;;
15567;SDS011;7885;42.596;23.044;2022-07-29T02:56:57;14.73;;;12.27;;
15567;SDS011;7885;42.596;23.044;2022-07-29T02:59:27;15.53;;;12.40;;
15567;SDS011;7885;42.596;23.044;2022-07-29T03:01:58;17.43;;;12.63;;
15567;SDS011;7885;42.596;23.044;2022-07-29T03:04:27;15.90;;;13.57;;
15567;SDS011;7885;42.596;23.044;2022-07-29T03:06:58;18.27;;;13.87;;
15567;SDS011;7885;42.596;23.044;2022-07-29T03:09:26;14.80;;;13.37;;
15567;SDS011;7885;42.596;23.044;2022-07-29T03:11:54;14.93;;;13.33;;
15567;SDS011;7885;42.596;23.044;2022-07-29T03:14:22;14.70;;;13.20;;
15567;SDS011;7885;42.596;23.044;2022-07-29T03:16:50;15.73;;;13.17;;
15567;SDS011;7885;42.596;23.044;2022-07-29T03:19:18;18.73;;;14.00;;
15567;SDS011;7885;42.596;23.044;2022-07-29T03:21:46;17.30;;;14.30;;
15567;SDS011;7885;42.596;23.044;2022-07-29T03:24:26;17.97;;;14.17;;
15567;SDS011;7885;42.596;23.044;2022-07-29T03:26:57;13.67;;;12.17;;
15567;SDS011;7885;42.596;23.044;2022-07-29T03:29:25;13.87;;;12.20;;
15567;SDS011;7885;42.596;23.044;2022-07-29T03:31:52;15.27;;;12.53;;
15567;SDS011;7885;42.596;23.044;2022-07-29T03:34:19;18.50;;;14.13;;
15567;SDS011;7885;42.596;23.044;2022-07-29T03:36:48;19.77;;;14.27;;
15567;SDS011;7885;42.596;23.044;2022-07-29T03:39:16;20.27;;;14.60;;
15567;SDS011;7885;42.596;23.044;2022-07-29T03:41:47;13.20;;;12.00;;
15567;SDS011;7885;42.596;23.044;2022-07-29T03:44:16;15.57;;;12.80;;
15567;SDS011;7885;42.596;23.044;2022-07-29T03:46:44;15.83;;;14.10;;
15567;SDS011;7885;42.596;23.044;2022-07-29T03:49:14;16.53;;;13.77;;
15567;SDS011;7885;42.596;23.044;2022-07-29T03:51:43;17.23;;;15.13;;
15567;SDS011;7885;42.596;23.044;2022-07-29T03:54:11;15.13;;;13.40;;
15567;SDS011;7885;42.596;23.044;2022-07-29T03:56:40;17.70;;;14.03;;
15567;SDS011;7885;42.596;23.044;2022-07-29T03:59:11;19.20;;;14.17;;
15567;SDS011;7885;42.596;23.044;2022-07-29T04:01:39;17.47;;;13.83;;
15567;SDS011;7885;42.596;23.044;2022-07-29T04:04:07;15.33;;;13.73;;
15567;SDS011;7885;42.596;23.044;2022-07-29T04:06:38;17.83;;;14.97;;
15567;SDS011;7885;42.596;23.044;2022-07-29T04:09:05;17.17;;;13.87;;
15567;SDS011;7885;42.596;23.044;2022-07-29T04:11:34;16.00;;;13.13;;
15567;SDS011;7885;42.596;23.044;2022-07-29T04:14:02;14.47;;;13.03;;
15567;SDS011;7885;42.596;23.044;2022-07-29T04:16:28;15.47;;;13.27;;
15567;SDS011;7885;42.596;23.044;2022-07-29T04:18:55;18.33;;;13.83;;
15567;SDS011;7885;42.596;23.044;2022-07-29T04:21:22;18.40;;;14.43;;
15567;SDS011;7885;42.596;23.044;2022-07-29T04:23:49;17.03;;;15.20;;
15567;SDS011;7885;42.596;23.044;2022-07-29T04:26:16;18.40;;;15.63;;
15567;SDS011;7885;42.596;23.044;2022-07-29T04:28:44;23.27;;;16.33;;
15567;SDS011;7885;42.596;23.044;2022-07-29T04:31:12;17.80;;;15.93;;
15567;SDS011;7885;42.596;23.044;2022-07-29T04:33:39;20.87;;;16.87;;
15567;SDS011;7885;42.596;23.044;2022-07-29T04:36:06;19.73;;;16.80;;
15567;SDS011;7885;42.596;23.044;2022-07-29T04:38:33;20.57;;;16.73;;
15567;SDS011;7885;42.596;23.044;2022-07-29T04:40:59;22.60;;;17.43;;
15567;SDS011;7885;42.596;23.044;2022-07-29T04:43:26;19.17;;;17.23;;
15567;SDS011;7885;42.596;23.044;2022-07-29T04:45:54;22.30;;;17.00;;
15567;SDS011;7885;42.596;23.044;2022-07-29T04:48:21;23.60;;;17.93;;
15567;SDS011;7885;42.596;23.044;2022-07-29T04:50:48;22.60;;;17.50;;
15567;SDS011;7885;42.596;23.044;2022-07-29T04:53:14;22.00;;;18.17;;
15567;SDS011;7885;42.596;23.044;2022-07-29T04:55:41;22.83;;;18.33;;
15567;SDS011;7885;42.596;23.044;2022-07-29T04:58:08;22.77;;;18.83;;
15567;SDS011;7885;42.596;23.044;2022-07-29T05:00:35;20.73;;;17.97;;
15567;SDS011;7885;42.596;23.044;2022-07-29T05:03:03;22.70;;;18.60;;
15567;SDS011;7885;42.596;23.044;2022-07-29T05:05:30;25.10;;;19.20;;
15567;SDS011;7885;42.596;23.044;2022-07-29T05:07:57;24.60;;;18.50;;
15567;SDS011;7885;42.596;23.044;2022-07-29T05:10:24;23.03;;;18.53;;
15567;SDS011;7885;42.596;23.044;2022-07-29T05:12:51;24.97;;;19.13;;
15567;SDS011;7885;42.596;23.044;2022-07-29T05:15:18;22.70;;;19.37;;
15567;SDS011;7885;42.596;23.044;2022-07-29T05:17:45;23.00;;;18.47;;
15567;SDS011;7885;42.596;23.044;2022-07-29T05:20:13;24.47;;;19.30;;
15567;SDS011;7885;42.596;23.044;2022-07-29T05:22:40;25.80;;;19.67;;
15567;SDS011;7885;42.596;23.044;2022-07-29T05:25:07;33.23;;;21.27;;
15567;SDS011;7885;42.596;23.044;2022-07-29T05:27:35;24.43;;;19.70;;
15567;SDS011;7885;42.596;23.044;2022-07-29T05:30:02;34.23;;;21.23;;
15567;SDS011;7885;42.596;23.044;2022-07-29T05:32:29;30.10;;;21.60;;
15567;SDS011;7885;42.596;23.044;2022-07-29T05:34:55;31.27;;;19.97;;
15567;SDS011;7885;42.596;23.044;2022-07-29T05:37:24;34.43;;;21.20;;
15567;SDS011;7885;42.596;23.044;2022-07-29T05:39:50;28.47;;;21.20;;
15567;SDS011;7885;42.596;23.044;2022-07-29T05:42:17;30.63;;;21.47;;
15567;SDS011;7885;42.596;23.044;2022-07-29T05:44:44;27.03;;;20.07;;
15567;SDS011;7885;42.596;23.044;2022-07-29T05:47:12;26.13;;;19.83;;
15567;SDS011;7885;42.596;23.044;2022-07-29T05:49:39;29.40;;;19.90;;
15567;SDS011;7885;42.596;23.044;2022-07-29T05:52:06;26.77;;;19.57;;
15567;SDS011;7885;42.596;23.044;2022-07-29T05:54:35;25.33;;;20.70;;
15567;SDS011;7885;42.596;23.044;2022-07-29T05:57:02;31.73;;;21.33;;
15567;SDS011;7885;42.596;23.044;2022-07-29T05:59:29;27.97;;;21.40;;
15567;SDS011;7885;42.596;23.044;2022-07-29T06:01:56;30.40;;;20.40;;
15567;SDS011;7885;42.596;23.044;2022-07-29T06:04:23;27.17;;;20.07;;
15567;SDS011;7885;42.596;23.044;2022-07-29T06:06:49;29.57;;;20.60;;
15567;SDS011;7885;42.596;23.044;2022-07-29T06:09:16;30.30;;;20.57;;
15567;SDS011;7885;42.596;23.044;2022-07-29T06:11:44;30.33;;;20.50;;
15567;SDS011;7885;42.596;23.044;2022-07-29T06:14:11;25.20;;;18.47;;
15567;SDS011;7885;42.596;23.044;2022-07-29T06:16:38;21.10;;;18.50;;
15567;SDS011;7885;42.596;23.044;2022-07-29T06:19:05;26.13;;;18.30;;
15567;SDS011;7885;42.596;23.044;2022-07-29T06:21:32;19.83;;;16.90;;
15567;SDS011;7885;42.596;23.044;2022-07-29T06:23:58;20.07;;;17.30;;
15567;SDS011;7885;42.596;23.044;2022-07-29T06:26:25;28.70;;;17.70;;
15567;SDS011;7885;42.596;23.044;2022-07-29T06:28:53;23.07;;;18.03;;
15567;SDS011;7885;42.596;23.044;2022-07-29T06:31:20;19.70;;;16.00;;
15567;SDS011;7885;42.596;23.044;2022-07-29T06:33:47;19.13;;;16.43;;
15567;SDS011;7885;42.596;23.044;2022-07-29T06:36:14;21.67;;;17.13;;
15567;SDS011;7885;42.596;23.044;2022-07-29T06:38:40;24.53;;;17.77;;
15567;SDS011;7885;42.596;23.044;2022-07-29T06:41:07;27.77;;;17.67;;
15567;SDS011;7885;42.596;23.044;2022-07-29T06:43:38;21.53;;;16.80;;
15567;SDS011;7885;42.596;23.044;2022-07-29T06:46:08;22.00;;;16.87;;
15567;SDS011;7885;42.596;23.044;2022-07-29T06:48:35;23.80;;;16.63;;
15567;SDS011;7885;42.596;23.044;2022-07-29T06:51:03;23.37;;;16.47;;
15567;SDS011;7885;42.596;23.044;2022-07-29T06:53:31;19.27;;;16.63;;
15567;SDS011;7885;42.596;23.044;2022-07-29T06:55:59;17.53;;;15.63;;
15567;SDS011;7885;42.596;23.044;2022-07-29T07:01:50;21.27;;;16.87;;
15567;SDS011;7885;42.596;23.044;2022-07-29T07:04:17;21.70;;;17.07;;
15567;SDS011;7885;42.596;23.044;2022-07-29T07:06:43;21.70;;;17.17;;
15567;SDS011;7885;42.596;23.044;2022-07-29T07:09:10;24.77;;;17.57;;
15567;SDS011;7885;42.596;23.044;2022-07-29T07:11:37;20.97;;;16.53;;
15567;SDS011;7885;42.596;23.044;2022-07-29T07:14:04;25.23;;;16.77;;
15567;SDS011;7885;42.596;23.044;2022-07-29T07:16:31;22.53;;;15.73;;
15567;SDS011;7885;42.596;23.044;2022-07-29T07:18:59;20.40;;;16.27;;
15567;SDS011;7885;42.596;23.044;2022-07-29T07:21:26;16.80;;;14.60;;
15567;SDS011;7885;42.596;23.044;2022-07-29T07:23:53;18.87;;;15.17;;
15567;SDS011;7885;42.596;23.044;2022-07-29T07:26:20;17.30;;;15.50;;
15567;SDS011;7885;42.596;23.044;2022-07-29T07:28:47;16.13;;;13.67;;
15567;SDS011;7885;42.596;23.044;2022-07-29T07:31:13;17.43;;;15.67;;
15567;SDS011;7885;42.596;23.044;2022-07-29T07:33:40;19.07;;;15.73;;
15567;SDS011;7885;42.596;23.044;2022-07-29T07:36:08;18.73;;;15.73;;
15567;SDS011;7885;42.596;23.044;2022-07-29T07:38:35;18.33;;;15.53;;
15567;SDS011;7885;42.596;23.044;2022-07-29T07:41:02;18.60;;;15.33;;
15567;SDS011;7885;42.596;23.044;2022-07-29T07:43:29;16.90;;;15.30;;
15567;SDS011;7885;42.596;23.044;2022-07-29T07:45:55;16.10;;;14.60;;
15567;SDS011;7885;42.596;23.044;2022-07-29T07:48:22;16.87;;;14.93;;
15567;SDS011;7885;42.596;23.044;2022-07-29T07:50:49;15.77;;;14.07;;
15567;SDS011;7885;42.596;23.044;2022-07-29T07:53:17;31.93;;;15.03;;
15567;SDS011;7885;42.596;23.044;2022-07-29T07:55:44;16.97;;;13.80;;
15567;SDS011;7885;42.596;23.044;2022-07-29T07:58:11;18.47;;;12.77;;
15567;SDS011;7885;42.596;23.044;2022-07-29T08:00:38;14.03;;;12.50;;
15567;SDS011;7885;42.596;23.044;2022-07-29T08:03:04;14.17;;;12.77;;
15567;SDS011;7885;42.596;23.044;2022-07-29T08:05:32;16.07;;;12.37;;
15567;SDS011;7885;42.596;23.044;2022-07-29T08:07:59;12.80;;;11.57;;
15567;SDS011;7885;42.596;23.044;2022-07-29T08:10:27;13.67;;;11.93;;
15567;SDS011;7885;42.596;23.044;2022-07-29T08:13:11;15.40;;;11.93;;
15567;SDS011;7885;42.596;23.044;2022-07-29T08:15:39;13.03;;;11.70;;
15567;SDS011;7885;42.596;23.044;2022-07-29T08:18:08;13.47;;;12.20;;
15567;SDS011;7885;42.596;23.044;2022-07-29T08:20:35;12.25;;;11.07;;
15567;SDS011;7885;42.596;23.044;2022-07-29T08:23:04;12.57;;;11.27;;
15567;SDS011;7885;42.596;23.044;2022-07-29T08:25:35;12.00;;;10.90;;
15567;SDS011;7885;42.596;23.044;2022-07-29T08:28:03;13.33;;;11.13;;
15567;SDS011;7885;42.596;23.044;2022-07-29T08:30:30;15.05;;;10.32;;
15567;SDS011;7885;42.596;23.044;2022-07-29T08:32:57;13.63;;;10.90;;
15567;SDS011;7885;42.596;23.044;2022-07-29T08:35:24;12.23;;;11.13;;
15567;SDS011;7885;42.596;23.044;2022-07-29T08:37:52;11.33;;;10.23;;
15567;SDS011;7885;42.596;23.044;2022-07-29T08:40:20;11.75;;;10.55;;
15567;SDS011;7885;42.596;23.044;2022-07-29T08:42:49;11.48;;;10.27;;
15567;SDS011;7885;42.596;23.044;2022-07-29T08:45:17;12.18;;;10.63;;
15567;SDS011;7885;42.596;23.044;2022-07-29T08:47:44;18.88;;;12.38;;
15567;SDS011;7885;42.596;23.044;2022-07-29T08:50:11;23.42;;;14.38;;
15567;SDS011;7885;42.596;23.044;2022-07-29T08:52:39;11.32;;;10.27;;
15567;SDS011;7885;42.596;23.044;2022-07-29T08:55:07;39.97;;;34.42;;
15567;SDS011;7885;42.596;23.044;2022-07-29T08:57:35;11.77;;;10.77;;
15567;SDS011;7885;42.596;23.044;2022-07-29T09:00:05;12.50;;;11.20;;
15567;SDS011;7885;42.596;23.044;2022-07-29T09:02:35;14.70;;;11.02;;
15567;SDS011;7885;42.596;23.044;2022-07-29T09:05:05;15.70;;;11.70;;
15567;SDS011;7885;42.596;23.044;2022-07-29T09:07:33;12.70;;;11.40;;
15567;SDS011;7885;42.596;23.044;2022-07-29T09:10:00;11.55;;;10.07;;
15567;SDS011;7885;42.596;23.044;2022-07-29T09:12:28;12.65;;;11.35;;
15567;SDS011;7885;42.596;23.044;2022-07-29T09:14:56;11.55;;;10.55;;
15567;SDS011;7885;42.596;23.044;2022-07-29T09:20:11;13.38;;;11.43;;
15567;SDS011;7885;42.596;23.044;2022-07-29T09:22:39;11.82;;;10.73;;
15567;SDS011;7885;42.596;23.044;2022-07-29T09:25:05;12.77;;;10.52;;
15567;SDS011;7885;42.596;23.044;2022-07-29T09:27:32;12.45;;;10.80;;
15567;SDS011;7885;42.596;23.044;2022-07-29T09:30:00;13.40;;;11.45;;
15567;SDS011;7885;42.596;23.044;2022-07-29T09:32:29;11.10;;;9.93;;
15567;SDS011;7885;42.596;23.044;2022-07-29T09:35:19;11.52;;;10.38;;
15567;SDS011;7885;42.596;23.044;2022-07-29T09:37:47;11.32;;;10.02;;
15567;SDS011;7885;42.596;23.044;2022-07-29T09:40:15;12.73;;;10.07;;
15567;SDS011;7885;42.596;23.044;2022-07-29T09:42:43;12.23;;;11.02;;
15567;SDS011;7885;42.596;23.044;2022-07-29T09:45:11;13.70;;;10.30;;
15567;SDS011;7885;42.596;23.044;2022-07-29T09:47:45;11.40;;;10.35;;
15567;SDS011;7885;42.596;23.044;2022-07-29T09:50:14;11.93;;;10.70;;
15567;SDS011;7885;42.596;23.044;2022-07-29T09:52:46;11.70;;;10.57;;
15567;SDS011;7885;42.596;23.044;2022-07-29T09:55:14;12.23;;;10.32;;
15567;SDS011;7885;42.596;23.044;2022-07-29T09:57:41;11.50;;;10.35;;
15567;SDS011;7885;42.596;23.044;2022-07-29T10:00:09;11.43;;;10.25;;
15567;SDS011;7885;42.596;23.044;2022-07-29T10:02:40;12.32;;;11.00;;
15567;SDS011;7885;42.596;23.044;2022-07-29T10:05:16;11.43;;;10.32;;
15567;SDS011;7885;42.596;23.044;2022-07-29T10:07:47;11.82;;;10.73;;
15567;SDS011;7885;42.596;23.044;2022-07-29T10:10:19;13.70;;;12.27;;
15567;SDS011;7885;42.596;23.044;2022-07-29T10:12:51;11.55;;;10.40;;
15567;SDS011;7885;42.596;23.044;2022-07-29T10:15:20;11.68;;;10.32;;
15567;SDS011;7885;42.596;23.044;2022-07-29T10:17:48;12.73;;;10.05;;
15567;SDS011;7885;42.596;23.044;2022-07-29T10:20:15;15.65;;;10.80;;
15567;SDS011;7885;42.596;23.044;2022-07-29T10:22:43;10.05;;;9.15;;
15567;SDS011;7885;42.596;23.044;2022-07-29T10:25:13;11.15;;;10.05;;
15567;SDS011;7885;42.596;23.044;2022-07-29T10:27:41;11.88;;;10.50;;
15567;SDS011;7885;42.596;23.044;2022-07-29T10:30:08;11.32;;;10.18;;
15567;SDS011;7885;42.596;23.044;2022-07-29T10:32:44;11.93;;;10.73;;
15567;SDS011;7885;42.596;23.044;2022-07-29T10:35:29;12.00;;;10.13;;
15567;SDS011;7885;42.596;23.044;2022-07-29T10:41:13;11.63;;;10.18;;
15567;SDS011;7885;42.596;23.044;2022-07-29T10:43:54;10.85;;;9.82;;
15567;SDS011;7885;42.596;23.044;2022-07-29T10:46:24;11.45;;;10.20;;
15567;SDS011;7885;42.596;23.044;2022-07-29T10:54:36;12.68;;;10.10;;
15567;SDS011;7885;42.596;23.044;2022-07-29T10:57:19;11.77;;;10.57;;
15567;SDS011;7885;42.596;23.044;2022-07-29T10:59:50;11.20;;;10.20;;
15567;SDS011;7885;42.596;23.044;2022-07-29T11:02:41;11.25;;;10.13;;
15567;SDS011;7885;42.596;23.044;2022-07-29T11:05:10;11.63;;;10.55;;
15567;SDS011;7885;42.596;23.044;2022-07-29T11:07:38;11.15;;;10.15;;
15567;SDS011;7885;42.596;23.044;2022-07-29T11:10:19;10.45;;;9.40;;
15567;SDS011;7885;42.596;23.044;2022-07-29T11:12:49;11.77;;;10.32;;
15567;SDS011;7885;42.596;23.044;2022-07-29T11:15:16;12.18;;;10.85;;
15567;SDS011;7885;42.596;23.044;2022-07-29T11:20:31;12.23;;;10.88;;
15567;SDS011;7885;42.596;23.044;2022-07-29T11:22:59;14.25;;;11.32;;
15567;SDS011;7885;42.596;23.044;2022-07-29T11:25:26;12.10;;;10.60;;
15567;SDS011;7885;42.596;23.044;2022-07-29T11:28:08;12.27;;;10.55;;
15567;SDS011;7885;42.596;23.044;2022-07-29T11:30:49;14.50;;;10.95;;
15567;SDS011;7885;42.596;23.044;2022-07-29T11:33:27;11.65;;;10.30;;
15567;SDS011;7885;42.596;23.044;2022-07-29T11:36:07;11.07;;;10.07;;
15567;SDS011;7885;42.596;23.044;2022-07-29T11:38:35;11.15;;;10.05;;
15567;SDS011;7885;42.596;23.044;2022-07-29T11:43:51;12.40;;;10.63;;
15567;SDS011;7885;42.596;23.044;2022-07-29T11:49:09;11.52;;;10.27;;
15567;SDS011;7885;42.596;23.044;2022-07-29T11:51:39;11.52;;;9.77;;
15567;SDS011;7885;42.596;23.044;2022-07-29T11:54:07;10.60;;;9.60;;
15567;SDS011;7885;42.596;23.044;2022-07-29T11:56:39;11.30;;;10.13;;
15567;SDS011;7885;42.596;23.044;2022-07-29T11:59:10;9.93;;;8.93;;
15567;SDS011;7885;42.596;23.044;2022-07-29T12:01:38;11.18;;;10.13;;
15567;SDS011;7885;42.596;23.044;2022-07-29T12:04:18;13.15;;;10.00;;
15567;SDS011;7885;42.596;23.044;2022-07-29T12:06:48;10.88;;;9.77;;
15567;SDS011;7885;42.596;23.044;2022-07-29T12:09:15;10.32;;;9.52;;
15567;SDS011;7885;42.596;23.044;2022-07-29T12:11:43;10.82;;;9.77;;
15567;SDS011;7885;42.596;23.044;2022-07-29T12:14:25;11.02;;;10.02;;
15567;SDS011;7885;42.596;23.044;2022-07-29T12:16:53;12.18;;;10.00;;
15567;SDS011;7885;42.596;23.044;2022-07-29T12:19:19;10.57;;;9.57;;
15567;SDS011;7885;42.596;23.044;2022-07-29T12:21:46;10.38;;;9.25;;
15567;SDS011;7885;42.596;23.044;2022-07-29T12:24:16;13.45;;;10.15;;
15567;SDS011;7885;42.596;23.044;2022-07-29T12:26:50;10.70;;;9.77;;
15567;SDS011;7885;42.596;23.044;2022-07-29T12:29:17;11.55;;;10.30;;
15567;SDS011;7885;42.596;23.044;2022-07-29T12:31:46;10.80;;;9.88;;
15567;SDS011;7885;42.596;23.044;2022-07-29T12:34:19;12.60;;;9.88;;
15567;SDS011;7885;42.596;23.044;2022-07-29T12:36:48;12.55;;;10.50;;
15567;SDS011;7885;42.596;23.044;2022-07-29T12:39:15;11.13;;;10.15;;
15567;SDS011;7885;42.596;23.044;2022-07-29T12:41:43;12.02;;;10.43;;
15567;SDS011;7885;42.596;23.044;2022-07-29T12:44:10;11.57;;;10.07;;
15567;SDS011;7885;42.596;23.044;2022-07-29T12:46:37;11.75;;;10.52;;
15567;SDS011;7885;42.596;23.044;2022-07-29T12:49:06;12.77;;;10.23;;
15567;SDS011;7885;42.596;23.044;2022-07-29T12:51:33;11.20;;;10.20;;
15567;SDS011;7885;42.596;23.044;2022-07-29T12:54:03;10.80;;;9.82;;
15567;SDS011;7885;42.596;23.044;2022-07-29T12:56:33;10.25;;;9.35;;
15567;SDS011;7885;42.596;23.044;2022-07-29T12:59:10;10.98;;;9.80;;
15567;SDS011;7885;42.596;23.044;2022-07-29T13:01:37;12.10;;;9.73;;
15567;SDS011;7885;42.596;23.044;2022-07-29T13:04:06;11.15;;;10.02;;
15567;SDS011;7885;42.596;23.044;2022-07-29T13:06:33;10.40;;;9.45;;
15567;SDS011;7885;42.596;23.044;2022-07-29T13:09:04;11.32;;;10.30;;
15567;SDS011;7885;42.596;23.044;2022-07-29T13:11:34;11.80;;;9.60;;
15567;SDS011;7885;42.596;23.044;2022-07-29T13:14:02;10.60;;;9.80;;
15567;SDS011;7885;42.596;23.044;2022-07-29T13:16:29;10.35;;;9.35;;
15567;SDS011;7885;42.596;23.044;2022-07-29T13:19:03;10.70;;;9.70;;
15567;SDS011;7885;42.596;23.044;2022-07-29T13:21:38;10.80;;;9.80;;
15567;SDS011;7885;42.596;23.044;2022-07-29T13:24:05;11.23;;;10.25;;
15567;SDS011;7885;42.596;23.044;2022-07-29T13:26:33;10.50;;;9.70;;
15567;SDS011;7885;42.596;23.044;2022-07-29T13:29:01;11.35;;;10.40;;
15567;SDS011;7885;42.596;23.044;2022-07-29T13:31:28;10.88;;;9.85;;
15567;SDS011;7885;42.596;23.044;2022-07-29T13:33:55;11.10;;;10.10;;
15567;SDS011;7885;42.596;23.044;2022-07-29T13:36:23;10.45;;;9.43;;
15567;SDS011;7885;42.596;23.044;2022-07-29T13:38:51;10.80;;;9.90;;
15567;SDS011;7885;42.596;23.044;2022-07-29T13:41:18;11.55;;;10.55;;
15567;SDS011;7885;42.596;23.044;2022-07-29T13:43:45;11.48;;;10.27;;
15567;SDS011;7885;42.596;23.044;2022-07-29T13:46:12;10.77;;;9.93;;
15567;SDS011;7885;42.596;23.044;2022-07-29T13:48:39;10.90;;;9.95;;
15567;SDS011;7885;42.596;23.044;2022-07-29T13:51:05;10.82;;;9.95;;
15567;SDS011;7885;42.596;23.044;2022-07-29T13:53:34;10.45;;;9.52;;
15567;SDS011;7885;42.596;23.044;2022-07-29T13:56:00;10.73;;;9.82;;
15567;SDS011;7885;42.596;23.044;2022-07-29T13:58:27;10.75;;;9.85;;
15567;SDS011;7885;42.596;23.044;2022-07-29T14:00:55;11.50;;;10.57;;
15567;SDS011;7885;42.596;23.044;2022-07-29T14:03:21;10.63;;;9.70;;
15567;SDS011;7885;42.596;23.044;2022-07-29T14:05:49;10.82;;;9.73;;
15567;SDS011;7885;42.596;23.044;2022-07-29T14:08:16;10.00;;;9.20;;
15567;SDS011;7885;42.596;23.044;2022-07-29T14:10:44;11.38;;;9.65;;
15567;SDS011;7885;42.596;23.044;2022-07-29T14:13:11;11.20;;;10.20;;
15567;SDS011;7885;42.596;23.044;2022-07-29T14:15:38;10.95;;;9.90;;
15567;SDS011;7885;42.596;23.044;2022-07-29T14:18:05;10.20;;;9.25;;
15567;SDS011;7885;42.596;23.044;2022-07-29T14:20:31;10.52;;;9.70;;
15567;SDS011;7885;42.596;23.044;2022-07-29T14:22:58;10.38;;;9.57;;
15567;SDS011;7885;42.596;23.044;2022-07-29T14:25:25;11.20;;;10.10;;
15567;SDS011;7885;42.596;23.044;2022-07-29T14:27:53;9.95;;;9.15;;
15567;SDS011;7885;42.596;23.044;2022-07-29T14:30:20;10.75;;;9.80;;
15567;SDS011;7885;42.596;23.044;2022-07-29T14:32:47;56.03;;;24.20;;
15567;SDS011;7885;42.596;23.044;2022-07-29T14:35:14;10.57;;;9.75;;
15567;SDS011;7885;42.596;23.044;2022-07-29T14:37:41;10.32;;;9.43;;
15567;SDS011;7885;42.596;23.044;2022-07-29T14:40:08;14.68;;;11.63;;
15567;SDS011;7885;42.596;23.044;2022-07-29T14:42:36;11.57;;;10.02;;
15567;SDS011;7885;42.596;23.044;2022-07-29T14:45:05;11.10;;;10.00;;
15567;SDS011;7885;42.596;23.044;2022-07-29T14:47:33;10.02;;;9.18;;
15567;SDS011;7885;42.596;23.044;2022-07-29T14:50:00;9.82;;;8.20;;
15567;SDS011;7885;42.596;23.044;2022-07-29T14:52:27;8.65;;;7.85;;
15567;SDS011;7885;42.596;23.044;2022-07-29T14:54:54;9.52;;;8.10;;
15567;SDS011;7885;42.596;23.044;2022-07-29T14:57:21;8.40;;;7.70;;
15567;SDS011;7885;42.596;23.044;2022-07-29T14:59:47;8.30;;;7.20;;
15567;SDS011;7885;42.596;23.044;2022-07-29T15:02:16;8.07;;;7.28;;